sensor_id;sensor_type;location;lat;lon;timestamp;pressure;altitude;pressure_sealevel;temperature
72054;BMP280;59918;51.280;7.950;2023-08-20T00:02:08;98531.78;;;19.25
72054;BMP280;59918;51.280;7.950;2023-08-20T00:04:36;98529.09;;;19.20
72054;BMP280;59918;51.280;7.950;2023-08-20T00:07:01;98529.50;;;19.12
72054;BMP280;59918;51.280;7.950;2023-08-20T00:09:27;98526.84;;;19.07
72054;BMP280;59918;51.280;7.950;2023-08-20T00:11:52;98518.16;;;19.02
72054;BMP280;59918;51.280;7.950;2023-08-20T00:14:17;98522.28;;;18.98
72054;BMP280;59918;51.280;7.950;2023-08-20T00:16:43;98525.00;;;18.91
72054;BMP280;59918;51.280;7.950;2023-08-20T00:19:09;98527.31;;;18.88
72054;BMP280;59918;51.280;7.950;2023-08-20T00:21:34;98532.19;;;18.84
72054;BMP280;59918;51.280;7.950;2023-08-20T00:24:00;98531.09;;;18.80
72054;BMP280;59918;51.280;7.950;2023-08-20T00:26:26;98546.97;;;18.79
72054;BMP280;59918;51.280;7.950;2023-08-20T00:28:51;98546.41;;;18.77
72054;BMP280;59918;51.280;7.950;2023-08-20T00:31:19;98550.06;;;18.76
72054;BMP280;59918;51.280;7.950;2023-08-20T00:33:44;98560.16;;;18.72
72054;BMP280;59918;51.280;7.950;2023-08-20T00:36:10;98565.13;;;18.74
72054;BMP280;59918;51.280;7.950;2023-08-20T00:38:35;98552.34;;;18.72
72054;BMP280;59918;51.280;7.950;2023-08-20T00:41:00;98555.56;;;18.79
72054;BMP280;59918;51.280;7.950;2023-08-20T00:43:25;98563.25;;;18.86
72054;BMP280;59918;51.280;7.950;2023-08-20T00:45:50;98557.78;;;18.87
72054;BMP280;59918;51.280;7.950;2023-08-20T00:48:16;98557.22;;;18.85
72054;BMP280;59918;51.280;7.950;2023-08-20T00:50:41;98559.53;;;18.82
72054;BMP280;59918;51.280;7.950;2023-08-20T00:53:09;98556.38;;;18.80
72054;BMP280;59918;51.280;7.950;2023-08-20T00:55:36;98555.50;;;18.74
72054;BMP280;59918;51.280;7.950;2023-08-20T00:58:01;98555.28;;;18.76
72054;BMP280;59918;51.280;7.950;2023-08-20T01:00:27;98555.28;;;18.76
72054;BMP280;59918;51.280;7.950;2023-08-20T01:02:52;98550.53;;;18.73
72054;BMP280;59918;51.280;7.950;2023-08-20T01:05:18;98559.84;;;18.69
72054;BMP280;59918;51.280;7.950;2023-08-20T01:13:22;98552.03;;;18.53
72054;BMP280;59918;51.280;7.950;2023-08-20T01:15:48;98537.88;;;18.49
72054;BMP280;59918;51.280;7.950;2023-08-20T01:18:13;98535.53;;;18.47
72054;BMP280;59918;51.280;7.950;2023-08-20T01:20:47;98537.56;;;18.45
72054;BMP280;59918;51.280;7.950;2023-08-20T01:26:03;98538.50;;;18.39
72054;BMP280;59918;51.280;7.950;2023-08-20T01:28:31;98538.44;;;18.34
72054;BMP280;59918;51.280;7.950;2023-08-20T01:30:58;98529.25;;;18.32
72054;BMP280;59918;51.280;7.950;2023-08-20T01:33:23;98524.28;;;18.30
72054;BMP280;59918;51.280;7.950;2023-08-20T01:35:50;98516.25;;;18.32
72054;BMP280;59918;51.280;7.950;2023-08-20T01:38:16;98515.91;;;18.28
72054;BMP280;59918;51.280;7.950;2023-08-20T01:40:41;98526.81;;;18.26
72054;BMP280;59918;51.280;7.950;2023-08-20T01:43:06;98528.31;;;18.22
72054;BMP280;59918;51.280;7.950;2023-08-20T01:45:34;98524.38;;;18.19
72054;BMP280;59918;51.280;7.950;2023-08-20T01:47:59;98530.81;;;18.17
72054;BMP280;59918;51.280;7.950;2023-08-20T01:50:25;98532.84;;;18.15
72054;BMP280;59918;51.280;7.950;2023-08-20T01:52:50;98535.38;;;18.10
72054;BMP280;59918;51.280;7.950;2023-08-20T01:55:15;98537.22;;;18.09
72054;BMP280;59918;51.280;7.950;2023-08-20T01:57:41;98536.38;;;18.09
72054;BMP280;59918;51.280;7.950;2023-08-20T02:00:06;98526.25;;;18.07
72054;BMP280;59918;51.280;7.950;2023-08-20T02:02:32;98532.91;;;18.03
72054;BMP280;59918;51.280;7.950;2023-08-20T02:04:57;98540.94;;;18.02
72054;BMP280;59918;51.280;7.950;2023-08-20T02:07:22;98543.75;;;18.00
72054;BMP280;59918;51.280;7.950;2023-08-20T02:09:50;98545.03;;;17.98
72054;BMP280;59918;51.280;7.950;2023-08-20T02:12:15;98547.06;;;17.96
72054;BMP280;59918;51.280;7.950;2023-08-20T02:14:40;98544.91;;;17.93
72054;BMP280;59918;51.280;7.950;2023-08-20T02:17:06;98537.94;;;17.93
72054;BMP280;59918;51.280;7.950;2023-08-20T02:19:32;98538.16;;;17.92
72054;BMP280;59918;51.280;7.950;2023-08-20T02:21:57;98541.53;;;17.92
72054;BMP280;59918;51.280;7.950;2023-08-20T02:24:22;98539.16;;;17.91
72054;BMP280;59918;51.280;7.950;2023-08-20T02:26:48;98537.03;;;17.88
72054;BMP280;59918;51.280;7.950;2023-08-20T02:29:13;98541.69;;;17.86
72054;BMP280;59918;51.280;7.950;2023-08-20T02:31:38;98534.09;;;17.85
72054;BMP280;59918;51.280;7.950;2023-08-20T02:34:03;98537.72;;;17.84
72054;BMP280;59918;51.280;7.950;2023-08-20T02:36:29;98544.16;;;17.81
72054;BMP280;59918;51.280;7.950;2023-08-20T02:38:54;98542.38;;;17.82
72054;BMP280;59918;51.280;7.950;2023-08-20T02:41:19;98535.59;;;17.81
72054;BMP280;59918;51.280;7.950;2023-08-20T02:43:45;98534.25;;;17.78
72054;BMP280;59918;51.280;7.950;2023-08-20T02:46:10;98538.31;;;17.74
72054;BMP280;59918;51.280;7.950;2023-08-20T02:48:35;98547.63;;;17.70
72054;BMP280;59918;51.280;7.950;2023-08-20T02:51:01;98546.00;;;17.69
72054;BMP280;59918;51.280;7.950;2023-08-20T02:53:28;98552.25;;;17.68
72054;BMP280;59918;51.280;7.950;2023-08-20T02:55:54;98548.06;;;17.67
72054;BMP280;59918;51.280;7.950;2023-08-20T02:58:19;98548.53;;;17.64
72054;BMP280;59918;51.280;7.950;2023-08-20T03:00:44;98554.75;;;17.63
72054;BMP280;59918;51.280;7.950;2023-08-20T03:03:09;98560.28;;;17.67
72054;BMP280;59918;51.280;7.950;2023-08-20T03:05:35;98559.91;;;17.75
72054;BMP280;59918;51.280;7.950;2023-08-20T03:08:01;98553.34;;;17.84
72054;BMP280;59918;51.280;7.950;2023-08-20T03:10:27;98543.81;;;17.89
72054;BMP280;59918;51.280;7.950;2023-08-20T03:12:52;98549.81;;;17.90
72054;BMP280;59918;51.280;7.950;2023-08-20T03:15:19;98543.03;;;17.89
72054;BMP280;59918;51.280;7.950;2023-08-20T03:17:45;98542.69;;;17.85
72054;BMP280;59918;51.280;7.950;2023-08-20T03:20:10;98553.56;;;17.82
72054;BMP280;59918;51.280;7.950;2023-08-20T03:22:37;98552.22;;;17.80
72054;BMP280;59918;51.280;7.950;2023-08-20T03:25:03;98564.19;;;17.81
72054;BMP280;59918;51.280;7.950;2023-08-20T03:27:29;98558.06;;;17.87
72054;BMP280;59918;51.280;7.950;2023-08-20T03:29:54;98561.91;;;17.95
72054;BMP280;59918;51.280;7.950;2023-08-20T03:32:19;98564.34;;;18.02
72054;BMP280;59918;51.280;7.950;2023-08-20T03:34:45;98566.47;;;18.05
72054;BMP280;59918;51.280;7.950;2023-08-20T03:37:10;98569.63;;;18.07
72054;BMP280;59918;51.280;7.950;2023-08-20T03:39:35;98579.63;;;18.10
72054;BMP280;59918;51.280;7.950;2023-08-20T03:42:03;98587.53;;;18.15
72054;BMP280;59918;51.280;7.950;2023-08-20T03:44:28;98585.03;;;18.20
72054;BMP280;59918;51.280;7.950;2023-08-20T03:46:53;98577.44;;;18.18
72054;BMP280;59918;51.280;7.950;2023-08-20T03:49:19;98576.88;;;18.16
72054;BMP280;59918;51.280;7.950;2023-08-20T03:51:44;98571.81;;;18.10
72054;BMP280;59918;51.280;7.950;2023-08-20T03:54:09;98564.13;;;18.03
72054;BMP280;59918;51.280;7.950;2023-08-20T03:56:34;98568.34;;;17.93
72054;BMP280;59918;51.280;7.950;2023-08-20T03:59:00;98573.59;;;17.82
72054;BMP280;59918;51.280;7.950;2023-08-20T04:01:25;98578.47;;;17.78
72054;BMP280;59918;51.280;7.950;2023-08-20T04:03:50;98580.16;;;17.73
72054;BMP280;59918;51.280;7.950;2023-08-20T04:06:16;98577.22;;;17.69
72054;BMP280;59918;51.280;7.950;2023-08-20T04:08:41;98587.78;;;17.63
72054;BMP280;59918;51.280;7.950;2023-08-20T04:11:07;98580.19;;;17.61
72054;BMP280;59918;51.280;7.950;2023-08-20T04:13:32;98577.03;;;17.59
72054;BMP280;59918;51.280;7.950;2023-08-20T04:15:58;98587.91;;;17.56
72054;BMP280;59918;51.280;7.950;2023-08-20T04:18:23;98593.75;;;17.52
72054;BMP280;59918;51.280;7.950;2023-08-20T04:20:53;98597.19;;;17.53
72054;BMP280;59918;51.280;7.950;2023-08-20T04:23:19;98601.25;;;17.49
72054;BMP280;59918;51.280;7.950;2023-08-20T04:25:44;98608.72;;;17.45
72054;BMP280;59918;51.280;7.950;2023-08-20T04:28:10;98611.09;;;17.47
72054;BMP280;59918;51.280;7.950;2023-08-20T04:30:36;98610.84;;;17.48
72054;BMP280;59918;51.280;7.950;2023-08-20T04:33:01;98617.41;;;17.51
72054;BMP280;59918;51.280;7.950;2023-08-20T04:35:27;98621.94;;;17.55
72054;BMP280;59918;51.280;7.950;2023-08-20T04:37:52;98625.19;;;17.62
72054;BMP280;59918;51.280;7.950;2023-08-20T04:40:17;98611.59;;;17.71
72054;BMP280;59918;51.280;7.950;2023-08-20T04:42:42;98617.16;;;17.75
72054;BMP280;59918;51.280;7.950;2023-08-20T04:45:08;98615.88;;;17.77
72054;BMP280;59918;51.280;7.950;2023-08-20T04:47:34;98621.09;;;17.77
72054;BMP280;59918;51.280;7.950;2023-08-20T04:49:59;98624.50;;;17.78
72054;BMP280;59918;51.280;7.950;2023-08-20T04:52:24;98615.22;;;17.82
72054;BMP280;59918;51.280;7.950;2023-08-20T04:54:50;98626.41;;;17.82
72054;BMP280;59918;51.280;7.950;2023-08-20T04:57:15;98617.84;;;17.82
72054;BMP280;59918;51.280;7.950;2023-08-20T04:59:40;98613.84;;;17.79
72054;BMP280;59918;51.280;7.950;2023-08-20T05:02:05;98623.13;;;17.75
72054;BMP280;59918;51.280;7.950;2023-08-20T05:04:31;98627.56;;;17.75
72054;BMP280;59918;51.280;7.950;2023-08-20T05:06:56;98626.78;;;17.74
72054;BMP280;59918;51.280;7.950;2023-08-20T05:09:21;98619.53;;;17.76
72054;BMP280;59918;51.280;7.950;2023-08-20T05:11:46;98618.75;;;17.76
72054;BMP280;59918;51.280;7.950;2023-08-20T05:14:12;98626.31;;;17.77
72054;BMP280;59918;51.280;7.950;2023-08-20T05:16:37;98626.06;;;17.79
72054;BMP280;59918;51.280;7.950;2023-08-20T05:19:02;98624.81;;;17.81
72054;BMP280;59918;51.280;7.950;2023-08-20T05:21:28;98620.19;;;17.83
72054;BMP280;59918;51.280;7.950;2023-08-20T05:23:53;98627.53;;;17.86
72054;BMP280;59918;51.280;7.950;2023-08-20T05:26:18;98640.06;;;17.89
72054;BMP280;59918;51.280;7.950;2023-08-20T05:28:43;98633.94;;;17.95
72054;BMP280;59918;51.280;7.950;2023-08-20T05:31:09;98635.88;;;17.99
72054;BMP280;59918;51.280;7.950;2023-08-20T05:33:34;98641.16;;;18.04
72054;BMP280;59918;51.280;7.950;2023-08-20T05:35:59;98654.06;;;18.11
72054;BMP280;59918;51.280;7.950;2023-08-20T05:38:25;98649.63;;;18.23
72054;BMP280;59918;51.280;7.950;2023-08-20T05:40:50;98647.25;;;18.32
72054;BMP280;59918;51.280;7.950;2023-08-20T05:43:15;98645.59;;;18.43
72054;BMP280;59918;51.280;7.950;2023-08-20T05:45:40;98638.97;;;18.52
72054;BMP280;59918;51.280;7.950;2023-08-20T05:48:06;98650.13;;;18.63
72054;BMP280;59918;51.280;7.950;2023-08-20T05:50:31;98644.81;;;18.70
72054;BMP280;59918;51.280;7.950;2023-08-20T05:52:56;98641.66;;;18.84
72054;BMP280;59918;51.280;7.950;2023-08-20T05:55:22;98636.72;;;18.99
72054;BMP280;59918;51.280;7.950;2023-08-20T05:57:47;98639.22;;;19.10
72054;BMP280;59918;51.280;7.950;2023-08-20T06:00:12;98639.38;;;19.20
72054;BMP280;59918;51.280;7.950;2023-08-20T06:02:37;98634.31;;;19.30
72054;BMP280;59918;51.280;7.950;2023-08-20T06:05:03;98641.38;;;19.30
72054;BMP280;59918;51.280;7.950;2023-08-20T06:07:29;98642.16;;;19.30
72054;BMP280;59918;51.280;7.950;2023-08-20T06:09:54;98636.06;;;19.41
72054;BMP280;59918;51.280;7.950;2023-08-20T06:12:19;98639.72;;;19.61
72054;BMP280;59918;51.280;7.950;2023-08-20T06:14:45;98637.25;;;19.87
72054;BMP280;59918;51.280;7.950;2023-08-20T06:17:10;98637.84;;;20.15
72054;BMP280;59918;51.280;7.950;2023-08-20T06:19:35;98626.19;;;20.49
72054;BMP280;59918;51.280;7.950;2023-08-20T06:22:00;98629.09;;;20.74
72054;BMP280;59918;51.280;7.950;2023-08-20T06:24:26;98636.19;;;20.83
72054;BMP280;59918;51.280;7.950;2023-08-20T06:26:51;98640.56;;;20.73
72054;BMP280;59918;51.280;7.950;2023-08-20T06:29:17;98637.09;;;20.67
72054;BMP280;59918;51.280;7.950;2023-08-20T06:31:42;98638.47;;;20.70
72054;BMP280;59918;51.280;7.950;2023-08-20T06:34:07;98637.00;;;20.84
72054;BMP280;59918;51.280;7.950;2023-08-20T06:36:33;98638.75;;;21.04
72054;BMP280;59918;51.280;7.950;2023-08-20T06:38:58;98638.69;;;21.30
72054;BMP280;59918;51.280;7.950;2023-08-20T06:41:24;98639.91;;;21.54
72054;BMP280;59918;51.280;7.950;2023-08-20T06:43:49;98635.88;;;21.83
72054;BMP280;59918;51.280;7.950;2023-08-20T06:46:14;98633.44;;;22.17
72054;BMP280;59918;51.280;7.950;2023-08-20T06:48:40;98633.50;;;22.42
72054;BMP280;59918;51.280;7.950;2023-08-20T06:51:12;98648.19;;;22.48
72054;BMP280;59918;51.280;7.950;2023-08-20T06:53:37;98642.91;;;22.33
72054;BMP280;59918;51.280;7.950;2023-08-20T06:56:02;98647.34;;;22.28
72054;BMP280;59918;51.280;7.950;2023-08-20T06:58:28;98641.38;;;22.47
72054;BMP280;59918;51.280;7.950;2023-08-20T07:00:53;98635.69;;;22.89
72054;BMP280;59918;51.280;7.950;2023-08-20T07:03:18;98626.00;;;23.14
72054;BMP280;59918;51.280;7.950;2023-08-20T07:05:43;98635.16;;;23.02
72054;BMP280;59918;51.280;7.950;2023-08-20T07:08:09;98631.75;;;22.77
72054;BMP280;59918;51.280;7.950;2023-08-20T07:10:36;98624.63;;;22.58
72054;BMP280;59918;51.280;7.950;2023-08-20T07:13:01;98623.56;;;22.59
72054;BMP280;59918;51.280;7.950;2023-08-20T07:15:27;98632.50;;;22.77
72054;BMP280;59918;51.280;7.950;2023-08-20T07:17:52;98622.84;;;22.98
72054;BMP280;59918;51.280;7.950;2023-08-20T07:20:17;98617.31;;;23.19
72054;BMP280;59918;51.280;7.950;2023-08-20T07:22:42;98615.44;;;23.39
72054;BMP280;59918;51.280;7.950;2023-08-20T07:25:08;98619.91;;;23.58
72054;BMP280;59918;51.280;7.950;2023-08-20T07:27:33;98619.84;;;23.78
72054;BMP280;59918;51.280;7.950;2023-08-20T07:29:59;98618.72;;;23.94
72054;BMP280;59918;51.280;7.950;2023-08-20T07:32:24;98619.19;;;24.11
72054;BMP280;59918;51.280;7.950;2023-08-20T07:34:49;98618.88;;;24.27
72054;BMP280;59918;51.280;7.950;2023-08-20T07:37:15;98620.09;;;24.44
72054;BMP280;59918;51.280;7.950;2023-08-20T07:39:40;98613.69;;;24.60
72054;BMP280;59918;51.280;7.950;2023-08-20T07:42:05;98616.16;;;24.80
72054;BMP280;59918;51.280;7.950;2023-08-20T07:44:30;98611.34;;;24.96
72054;BMP280;59918;51.280;7.950;2023-08-20T07:46:56;98617.47;;;25.15
72054;BMP280;59918;51.280;7.950;2023-08-20T07:49:21;98611.81;;;25.31
72054;BMP280;59918;51.280;7.950;2023-08-20T07:51:46;98606.09;;;25.48
72054;BMP280;59918;51.280;7.950;2023-08-20T07:54:11;98607.28;;;25.65
72054;BMP280;59918;51.280;7.950;2023-08-20T07:56:37;98608.44;;;25.77
72054;BMP280;59918;51.280;7.950;2023-08-20T07:59:02;98615.59;;;25.95
72054;BMP280;59918;51.280;7.950;2023-08-20T08:01:27;98606.72;;;26.09
72054;BMP280;59918;51.280;7.950;2023-08-20T08:03:52;98607.91;;;26.22
72054;BMP280;59918;51.280;7.950;2023-08-20T08:06:18;98604.50;;;26.40
72054;BMP280;59918;51.280;7.950;2023-08-20T08:08:43;98609.75;;;26.58
72054;BMP280;59918;51.280;7.950;2023-08-20T08:11:08;98611.47;;;26.67
72054;BMP280;59918;51.280;7.950;2023-08-20T08:13:33;98602.81;;;26.80
72054;BMP280;59918;51.280;7.950;2023-08-20T08:15:59;98606.53;;;26.97
72054;BMP280;59918;51.280;7.950;2023-08-20T08:18:24;98608.09;;;27.12
72054;BMP280;59918;51.280;7.950;2023-08-20T08:20:49;98610.59;;;27.21
72054;BMP280;59918;51.280;7.950;2023-08-20T08:23:14;98612.88;;;27.28
72054;BMP280;59918;51.280;7.950;2023-08-20T08:25:40;98612.69;;;27.38
72054;BMP280;59918;51.280;7.950;2023-08-20T08:28:05;98618.03;;;27.51
72054;BMP280;59918;51.280;7.950;2023-08-20T08:30:31;98612.16;;;27.67
72054;BMP280;59918;51.280;7.950;2023-08-20T08:32:56;98618.50;;;27.80
72054;BMP280;59918;51.280;7.950;2023-08-20T08:35:21;98620.84;;;27.94
72054;BMP280;59918;51.280;7.950;2023-08-20T08:37:46;98621.16;;;28.06
72054;BMP280;59918;51.280;7.950;2023-08-20T08:40:12;98615.88;;;28.20
72054;BMP280;59918;51.280;7.950;2023-08-20T08:42:38;98616.78;;;28.37
72054;BMP280;59918;51.280;7.950;2023-08-20T08:45:04;98619.88;;;28.52
72054;BMP280;59918;51.280;7.950;2023-08-20T08:47:30;98624.88;;;28.54
72054;BMP280;59918;51.280;7.950;2023-08-20T08:49:56;98614.91;;;28.51
72054;BMP280;59918;51.280;7.950;2023-08-20T08:52:22;98619.28;;;28.68
72054;BMP280;59918;51.280;7.950;2023-08-20T08:54:48;98620.38;;;28.89
72054;BMP280;59918;51.280;7.950;2023-08-20T08:57:14;98625.97;;;29.09
72054;BMP280;59918;51.280;7.950;2023-08-20T08:59:40;98624.41;;;29.08
72054;BMP280;59918;51.280;7.950;2023-08-20T09:02:09;98625.75;;;29.19
72054;BMP280;59918;51.280;7.950;2023-08-20T09:04:38;98619.31;;;29.42
72054;BMP280;59918;51.280;7.950;2023-08-20T09:07:11;98612.69;;;29.61
72054;BMP280;59918;51.280;7.950;2023-08-20T09:09:36;98616.81;;;29.76
72054;BMP280;59918;51.280;7.950;2023-08-20T09:12:12;98617.19;;;29.91
72054;BMP280;59918;51.280;7.950;2023-08-20T09:14:38;98611.78;;;30.13
72054;BMP280;59918;51.280;7.950;2023-08-20T09:17:03;98601.06;;;30.34
72054;BMP280;59918;51.280;7.950;2023-08-20T09:19:29;98610.47;;;30.49
72054;BMP280;59918;51.280;7.950;2023-08-20T09:21:54;98604.84;;;30.58
72054;BMP280;59918;51.280;7.950;2023-08-20T09:24:38;98604.19;;;30.70
72054;BMP280;59918;51.280;7.950;2023-08-20T09:27:04;98598.44;;;30.85
72054;BMP280;59918;51.280;7.950;2023-08-20T09:29:32;98597.16;;;31.07
72054;BMP280;59918;51.280;7.950;2023-08-20T09:32:01;98602.28;;;31.29
72054;BMP280;59918;51.280;7.950;2023-08-20T09:34:36;98601.91;;;31.47
72054;BMP280;59918;51.280;7.950;2023-08-20T09:37:01;98594.56;;;31.53
72054;BMP280;59918;51.280;7.950;2023-08-20T09:39:26;98591.44;;;31.42
72054;BMP280;59918;51.280;7.950;2023-08-20T09:41:52;98592.06;;;31.48
72054;BMP280;59918;51.280;7.950;2023-08-20T09:44:17;98590.97;;;31.86
72054;BMP280;59918;51.280;7.950;2023-08-20T09:46:45;98582.84;;;32.31
72054;BMP280;59918;51.280;7.950;2023-08-20T09:49:12;98588.28;;;32.75
72054;BMP280;59918;51.280;7.950;2023-08-20T09:51:40;98586.56;;;33.11
72054;BMP280;59918;51.280;7.950;2023-08-20T09:54:28;98585.19;;;33.49
72054;BMP280;59918;51.280;7.950;2023-08-20T09:56:59;98587.09;;;33.72
72054;BMP280;59918;51.280;7.950;2023-08-20T09:59:26;98590.09;;;34.06
72054;BMP280;59918;51.280;7.950;2023-08-20T10:01:51;98578.81;;;34.48
72054;BMP280;59918;51.280;7.950;2023-08-20T10:04:17;98571.72;;;34.95
72054;BMP280;59918;51.280;7.950;2023-08-20T10:06:42;98581.03;;;35.43
72054;BMP280;59918;51.280;7.950;2023-08-20T10:09:08;98583.00;;;35.31
72054;BMP280;59918;51.280;7.950;2023-08-20T10:11:34;98581.44;;;35.60
72054;BMP280;59918;51.280;7.950;2023-08-20T10:13:59;98583.03;;;35.46
72054;BMP280;59918;51.280;7.950;2023-08-20T10:16:27;98575.94;;;35.84
72054;BMP280;59918;51.280;7.950;2023-08-20T10:18:52;98587.06;;;36.20
72054;BMP280;59918;51.280;7.950;2023-08-20T10:21:18;98581.66;;;36.69
72054;BMP280;59918;51.280;7.950;2023-08-20T10:23:50;98572.97;;;37.39
72054;BMP280;59918;51.280;7.950;2023-08-20T10:26:15;98583.03;;;38.15
72054;BMP280;59918;51.280;7.950;2023-08-20T10:28:40;98569.94;;;38.72
72054;BMP280;59918;51.280;7.950;2023-08-20T10:31:10;98562.94;;;38.97
72054;BMP280;59918;51.280;7.950;2023-08-20T10:33:37;98556.13;;;39.46
72054;BMP280;59918;51.280;7.950;2023-08-20T10:36:13;98554.44;;;39.77
72054;BMP280;59918;51.280;7.950;2023-08-20T10:38:39;98553.16;;;40.18
72054;BMP280;59918;51.280;7.950;2023-08-20T10:41:06;98552.97;;;40.64
72054;BMP280;59918;51.280;7.950;2023-08-20T10:43:33;98549.22;;;40.89
72054;BMP280;59918;51.280;7.950;2023-08-20T10:46:02;98560.69;;;40.65
72054;BMP280;59918;51.280;7.950;2023-08-20T10:48:28;98554.66;;;41.10
72054;BMP280;59918;51.280;7.950;2023-08-20T10:50:53;98556.22;;;41.73
72054;BMP280;59918;51.280;7.950;2023-08-20T10:53:21;98546.44;;;42.31
72054;BMP280;59918;51.280;7.950;2023-08-20T10:55:50;98545.78;;;42.94
72054;BMP280;59918;51.280;7.950;2023-08-20T10:58:15;98546.81;;;43.61
72054;BMP280;59918;51.280;7.950;2023-08-20T11:00:42;98546.03;;;44.01
72054;BMP280;59918;51.280;7.950;2023-08-20T11:03:07;98550.63;;;43.20
72054;BMP280;59918;51.280;7.950;2023-08-20T11:05:33;98550.34;;;40.88
72054;BMP280;59918;51.280;7.950;2023-08-20T11:07:59;98554.59;;;39.09
72054;BMP280;59918;51.280;7.950;2023-08-20T11:10:25;98553.63;;;37.74
72054;BMP280;59918;51.280;7.950;2023-08-20T11:12:51;98553.28;;;38.89
72054;BMP280;59918;51.280;7.950;2023-08-20T11:15:17;98554.38;;;40.37
72054;BMP280;59918;51.280;7.950;2023-08-20T11:17:44;98546.59;;;41.69
72054;BMP280;59918;51.280;7.950;2023-08-20T11:20:10;98542.09;;;42.61
72054;BMP280;59918;51.280;7.950;2023-08-20T11:22:35;98543.88;;;41.72
72054;BMP280;59918;51.280;7.950;2023-08-20T11:25:00;98549.63;;;41.08
72054;BMP280;59918;51.280;7.950;2023-08-20T11:27:29;98547.19;;;40.52
72054;BMP280;59918;51.280;7.950;2023-08-20T11:29:54;98542.97;;;39.34
72054;BMP280;59918;51.280;7.950;2023-08-20T11:32:19;98550.84;;;38.19
72054;BMP280;59918;51.280;7.950;2023-08-20T11:34:44;98553.16;;;37.21
72054;BMP280;59918;51.280;7.950;2023-08-20T11:37:10;98550.09;;;36.25
72054;BMP280;59918;51.280;7.950;2023-08-20T11:39:36;98550.81;;;35.73
72054;BMP280;59918;51.280;7.950;2023-08-20T11:42:02;98548.97;;;38.23
72054;BMP280;59918;51.280;7.950;2023-08-20T11:44:27;98540.38;;;40.99
72054;BMP280;59918;51.280;7.950;2023-08-20T11:46:52;98529.41;;;42.51
72054;BMP280;59918;51.280;7.950;2023-08-20T11:49:26;98531.56;;;41.75
72054;BMP280;59918;51.280;7.950;2023-08-20T11:51:52;98529.94;;;42.05
72054;BMP280;59918;51.280;7.950;2023-08-20T11:54:18;98530.75;;;40.95
72054;BMP280;59918;51.280;7.950;2023-08-20T11:56:46;98535.34;;;39.46
72054;BMP280;59918;51.280;7.950;2023-08-20T11:59:11;98543.72;;;38.04
72054;BMP280;59918;51.280;7.950;2023-08-20T12:01:37;98544.53;;;37.12
72054;BMP280;59918;51.280;7.950;2023-08-20T12:04:07;98547.34;;;36.59
72054;BMP280;59918;51.280;7.950;2023-08-20T12:06:34;98537.44;;;36.22
72054;BMP280;59918;51.280;7.950;2023-08-20T12:09:00;98534.25;;;37.14
72054;BMP280;59918;51.280;7.950;2023-08-20T12:11:29;98522.78;;;40.24
72054;BMP280;59918;51.280;7.950;2023-08-20T12:13:55;98514.53;;;42.87
72054;BMP280;59918;51.280;7.950;2023-08-20T12:16:22;98509.44;;;44.48
72054;BMP280;59918;51.280;7.950;2023-08-20T12:18:48;98511.06;;;44.13
72054;BMP280;59918;51.280;7.950;2023-08-20T12:21:13;98516.97;;;45.42
72054;BMP280;59918;51.280;7.950;2023-08-20T12:23:39;98506.81;;;46.07
72054;BMP280;59918;51.280;7.950;2023-08-20T12:26:04;98510.38;;;45.43
72054;BMP280;59918;51.280;7.950;2023-08-20T12:28:29;98514.31;;;44.90
72054;BMP280;59918;51.280;7.950;2023-08-20T12:30:54;98518.41;;;44.45
72054;BMP280;59918;51.280;7.950;2023-08-20T12:33:20;98516.81;;;43.42
72054;BMP280;59918;51.280;7.950;2023-08-20T12:35:45;98513.22;;;43.55
72054;BMP280;59918;51.280;7.950;2023-08-20T12:38:10;98527.13;;;42.29
72054;BMP280;59918;51.280;7.950;2023-08-20T12:40:35;98531.91;;;41.11
72054;BMP280;59918;51.280;7.950;2023-08-20T12:43:01;98525.25;;;39.86
72054;BMP280;59918;51.280;7.950;2023-08-20T12:45:26;98523.91;;;39.13
72054;BMP280;59918;51.280;7.950;2023-08-20T12:47:51;98523.38;;;38.61
72054;BMP280;59918;51.280;7.950;2023-08-20T12:50:16;98532.56;;;37.99
72054;BMP280;59918;51.280;7.950;2023-08-20T12:52:42;98531.31;;;37.93
72054;BMP280;59918;51.280;7.950;2023-08-20T12:55:07;98523.75;;;37.50
72054;BMP280;59918;51.280;7.950;2023-08-20T12:57:34;98523.28;;;37.93
72054;BMP280;59918;51.280;7.950;2023-08-20T13:00:00;98521.63;;;38.14
72054;BMP280;59918;51.280;7.950;2023-08-20T13:02:25;98518.22;;;38.82
72054;BMP280;59918;51.280;7.950;2023-08-20T13:04:51;98500.59;;;42.07
72054;BMP280;59918;51.280;7.950;2023-08-20T13:07:16;98503.25;;;43.42
72054;BMP280;59918;51.280;7.950;2023-08-20T13:09:42;98494.84;;;43.73
72054;BMP280;59918;51.280;7.950;2023-08-20T13:12:09;98499.63;;;42.54
72054;BMP280;59918;51.280;7.950;2023-08-20T13:14:35;98510.69;;;40.92
72054;BMP280;59918;51.280;7.950;2023-08-20T13:17:01;98507.44;;;39.64
72054;BMP280;59918;51.280;7.950;2023-08-20T13:19:26;98508.88;;;38.69
72054;BMP280;59918;51.280;7.950;2023-08-20T13:21:51;98511.31;;;37.90
72054;BMP280;59918;51.280;7.950;2023-08-20T13:24:16;98509.84;;;37.45
72054;BMP280;59918;51.280;7.950;2023-08-20T13:26:42;98507.84;;;38.77
72054;BMP280;59918;51.280;7.950;2023-08-20T13:29:07;98489.63;;;42.48
72054;BMP280;59918;51.280;7.950;2023-08-20T13:31:32;98484.31;;;44.74
72054;BMP280;59918;51.280;7.950;2023-08-20T13:34:00;98486.63;;;45.24
72054;BMP280;59918;51.280;7.950;2023-08-20T13:36:25;98492.63;;;44.01
72054;BMP280;59918;51.280;7.950;2023-08-20T13:38:53;98506.34;;;42.15
72054;BMP280;59918;51.280;7.950;2023-08-20T13:41:18;98510.63;;;40.64
72054;BMP280;59918;51.280;7.950;2023-08-20T13:43:43;98499.16;;;41.09
72054;BMP280;59918;51.280;7.950;2023-08-20T13:46:09;98488.88;;;43.05
72054;BMP280;59918;51.280;7.950;2023-08-20T13:48:34;98486.91;;;45.94
72054;BMP280;59918;51.280;7.950;2023-08-20T13:51:02;98476.00;;;47.91
72054;BMP280;59918;51.280;7.950;2023-08-20T13:53:27;98487.66;;;48.19
72054;BMP280;59918;51.280;7.950;2023-08-20T13:55:53;98484.72;;;48.39
72054;BMP280;59918;51.280;7.950;2023-08-20T13:58:19;98507.03;;;46.90
72054;BMP280;59918;51.280;7.950;2023-08-20T14:00:44;98498.06;;;45.81
72054;BMP280;59918;51.280;7.950;2023-08-20T14:03:09;98496.03;;;46.93
72054;BMP280;59918;51.280;7.950;2023-08-20T14:05:35;98496.66;;;47.76
72054;BMP280;59918;51.280;7.950;2023-08-20T14:08:00;98485.84;;;48.91
72054;BMP280;59918;51.280;7.950;2023-08-20T14:10:25;98480.06;;;50.23